Monticello, South Carolina
Current Conditions -  °F | °C
As of 5:55 AM on Saturday 01 Nov 2014 (Local Time) from KFDW Reporting Station
Light Rain Light Rain  
Wind Chill: 29°   Ceiling: 700
Heat Index: 37°   Visibility: 10mi
Dew Point: 37°   Wind: 13mph
Humidity: 100%   Direction: 310°NW
Pressure: 29.69"   Gusts: 20mph
Location:  34.35°N, 81.3°W
Report Text: KFDW 010955Z AUTO 31011G17KT 10SM -RA OVC007 03/03 A2969 RMK AO1
Loading
Personal Weather Stations






























Interactive Weather Map
Tropical Storm Tracking
New forecast layout! Learn more

10-Day Weather Forecast

Advertisements
Track Severe Weather on mobile